sensor_id;sensor_type;location;lat;lon;timestamp;temperature;humidity
39925;DHT22;25592;49.986;11.618;2022-08-19T00:00:21;24.30;91.00
39925;DHT22;25592;49.986;11.618;2022-08-19T00:03:06;24.30;91.80
39925;DHT22;25592;49.986;11.618;2022-08-19T00:05:52;24.30;91.80
39925;DHT22;25592;49.986;11.618;2022-08-19T00:08:37;24.30;91.60
39925;DHT22;25592;49.986;11.618;2022-08-19T00:11:27;24.20;91.40
39925;DHT22;25592;49.986;11.618;2022-08-19T00:14:15;24.00;91.40
39925;DHT22;25592;49.986;11.618;2022-08-19T00:17:02;24.00;92.00
39925;DHT22;25592;49.986;11.618;2022-08-19T00:19:48;24.00;91.40
39925;DHT22;25592;49.986;11.618;2022-08-19T00:22:33;24.00;92.00
39925;DHT22;25592;49.986;11.618;2022-08-19T00:25:20;24.00;92.10
39925;DHT22;25592;49.986;11.618;2022-08-19T00:28:14;24.10;91.10
39925;DHT22;25592;49.986;11.618;2022-08-19T00:31:02;24.00;92.20
39925;DHT22;25592;49.986;11.618;2022-08-19T00:33:48;23.90;91.90
39925;DHT22;25592;49.986;11.618;2022-08-19T00:36:36;23.80;92.30
39925;DHT22;25592;49.986;11.618;2022-08-19T00:39:22;23.80;91.80
39925;DHT22;25592;49.986;11.618;2022-08-19T00:42:08;23.70;92.40
39925;DHT22;25592;49.986;11.618;2022-08-19T00:44:53;23.70;91.50
39925;DHT22;25592;49.986;11.618;2022-08-19T00:47:39;23.70;92.10
39925;DHT22;25592;49.986;11.618;2022-08-19T00:50:24;23.70;92.20
39925;DHT22;25592;49.986;11.618;2022-08-19T00:53:11;23.70;92.10
39925;DHT22;25592;49.986;11.618;2022-08-19T00:55:59;23.80;91.70
39925;DHT22;25592;49.986;11.618;2022-08-19T00:58:45;23.80;92.00
39925;DHT22;25592;49.986;11.618;2022-08-19T01:01:31;23.80;92.40
39925;DHT22;25592;49.986;11.618;2022-08-19T01:04:16;23.80;92.00
39925;DHT22;25592;49.986;11.618;2022-08-19T01:07:02;23.80;91.90
39925;DHT22;25592;49.986;11.618;2022-08-19T01:09:47;23.80;91.80
39925;DHT22;25592;49.986;11.618;2022-08-19T01:12:33;23.80;91.80
39925;DHT22;25592;49.986;11.618;2022-08-19T01:15:27;23.80;92.40
39925;DHT22;25592;49.986;11.618;2022-08-19T01:18:17;23.80;92.10
39925;DHT22;25592;49.986;11.618;2022-08-19T01:21:09;23.80;92.00
39925;DHT22;25592;49.986;11.618;2022-08-19T01:23:56;23.80;92.10
39925;DHT22;25592;49.986;11.618;2022-08-19T01:26:42;23.80;92.20
39925;DHT22;25592;49.986;11.618;2022-08-19T01:29:31;23.80;92.40
39925;DHT22;25592;49.986;11.618;2022-08-19T01:32:16;23.80;92.30
39925;DHT22;25592;49.986;11.618;2022-08-19T01:35:19;23.80;92.40
39925;DHT22;25592;49.986;11.618;2022-08-19T01:38:07;23.80;92.40
39925;DHT22;25592;49.986;11.618;2022-08-19T01:40:53;23.80;92.20
39925;DHT22;25592;49.986;11.618;2022-08-19T01:43:39;23.80;92.50
39925;DHT22;25592;49.986;11.618;2022-08-19T01:46:47;23.80;92.40
39925;DHT22;25592;49.986;11.618;2022-08-19T01:49:33;23.80;92.40
39925;DHT22;25592;49.986;11.618;2022-08-19T01:52:19;23.90;92.70
39925;DHT22;25592;49.986;11.618;2022-08-19T01:55:07;23.80;93.20
39925;DHT22;25592;49.986;11.618;2022-08-19T01:57:56;23.70;93.50
39925;DHT22;25592;49.986;11.618;2022-08-19T02:00:43;23.60;93.60
39925;DHT22;25592;49.986;11.618;2022-08-19T02:03:29;23.70;93.60
39925;DHT22;25592;49.986;11.618;2022-08-19T02:06:14;23.70;93.40
39925;DHT22;25592;49.986;11.618;2022-08-19T02:09:03;23.70;93.70
39925;DHT22;25592;49.986;11.618;2022-08-19T02:11:49;23.70;93.70
39925;DHT22;25592;49.986;11.618;2022-08-19T02:14:35;23.70;93.50
39925;DHT22;25592;49.986;11.618;2022-08-19T02:17:20;23.70;93.70
39925;DHT22;25592;49.986;11.618;2022-08-19T02:20:06;23.60;93.90
39925;DHT22;25592;49.986;11.618;2022-08-19T02:22:52;23.60;93.80
39925;DHT22;25592;49.986;11.618;2022-08-19T02:25:38;23.60;93.90
39925;DHT22;25592;49.986;11.618;2022-08-19T02:28:23;23.70;94.10
39925;DHT22;25592;49.986;11.618;2022-08-19T02:31:11;23.70;93.60
39925;DHT22;25592;49.986;11.618;2022-08-19T02:33:57;23.70;93.60
39925;DHT22;25592;49.986;11.618;2022-08-19T02:36:43;23.70;93.80
39925;DHT22;25592;49.986;11.618;2022-08-19T02:39:35;23.70;94.00
39925;DHT22;25592;49.986;11.618;2022-08-19T02:42:21;23.70;94.00
39925;DHT22;25592;49.986;11.618;2022-08-19T02:45:07;23.60;94.20
39925;DHT22;25592;49.986;11.618;2022-08-19T02:47:52;23.50;94.40
39925;DHT22;25592;49.986;11.618;2022-08-19T02:50:39;23.50;94.10
39925;DHT22;25592;49.986;11.618;2022-08-19T02:53:37;23.50;93.90
39925;DHT22;25592;49.986;11.618;2022-08-19T02:56:23;23.60;94.40
39925;DHT22;25592;49.986;11.618;2022-08-19T02:59:09;23.60;94.40
39925;DHT22;25592;49.986;11.618;2022-08-19T03:01:56;23.60;94.50
39925;DHT22;25592;49.986;11.618;2022-08-19T03:04:42;23.50;94.50
39925;DHT22;25592;49.986;11.618;2022-08-19T03:07:27;23.50;94.80
39925;DHT22;25592;49.986;11.618;2022-08-19T03:10:13;23.60;94.70
39925;DHT22;25592;49.986;11.618;2022-08-19T03:12:58;23.60;94.50
39925;DHT22;25592;49.986;11.618;2022-08-19T03:15:48;23.70;94.80
39925;DHT22;25592;49.986;11.618;2022-08-19T03:18:34;23.70;94.90
39925;DHT22;25592;49.986;11.618;2022-08-19T03:21:22;23.70;95.00
39925;DHT22;25592;49.986;11.618;2022-08-19T03:24:09;23.70;95.10
39925;DHT22;25592;49.986;11.618;2022-08-19T03:26:55;23.70;94.80
39925;DHT22;25592;49.986;11.618;2022-08-19T03:29:43;23.70;94.20
39925;DHT22;25592;49.986;11.618;2022-08-19T03:32:29;23.70;94.40
39925;DHT22;25592;49.986;11.618;2022-08-19T03:35:17;23.70;94.70
39925;DHT22;25592;49.986;11.618;2022-08-19T03:38:04;23.70;94.40
39925;DHT22;25592;49.986;11.618;2022-08-19T03:40:49;23.60;94.80
39925;DHT22;25592;49.986;11.618;2022-08-19T03:43:36;23.60;94.40
39925;DHT22;25592;49.986;11.618;2022-08-19T03:46:25;23.60;94.00
39925;DHT22;25592;49.986;11.618;2022-08-19T03:49:11;23.50;94.70
39925;DHT22;25592;49.986;11.618;2022-08-19T03:51:59;23.40;95.40
39925;DHT22;25592;49.986;11.618;2022-08-19T03:54:45;23.20;95.40
39925;DHT22;25592;49.986;11.618;2022-08-19T03:57:31;23.30;95.20
39925;DHT22;25592;49.986;11.618;2022-08-19T04:00:17;23.20;95.90
39925;DHT22;25592;49.986;11.618;2022-08-19T04:03:02;23.00;96.10
39925;DHT22;25592;49.986;11.618;2022-08-19T04:05:48;22.70;96.90
39925;DHT22;25592;49.986;11.618;2022-08-19T04:08:33;22.70;97.30
39925;DHT22;25592;49.986;11.618;2022-08-19T04:11:23;22.70;97.80
39925;DHT22;25592;49.986;11.618;2022-08-19T04:14:29;22.80;97.30
39925;DHT22;25592;49.986;11.618;2022-08-19T04:17:18;22.90;97.00
39925;DHT22;25592;49.986;11.618;2022-08-19T04:20:04;23.00;97.20
39925;DHT22;25592;49.986;11.618;2022-08-19T04:22:51;23.10;97.20
39925;DHT22;25592;49.986;11.618;2022-08-19T04:25:39;23.20;97.00
39925;DHT22;25592;49.986;11.618;2022-08-19T04:28:25;23.20;97.10
39925;DHT22;25592;49.986;11.618;2022-08-19T04:31:15;23.20;96.50
39925;DHT22;25592;49.986;11.618;2022-08-19T04:34:03;23.20;97.00
39925;DHT22;25592;49.986;11.618;2022-08-19T04:36:50;23.20;96.60
39925;DHT22;25592;49.986;11.618;2022-08-19T04:39:36;23.20;97.00
39925;DHT22;25592;49.986;11.618;2022-08-19T04:42:46;23.10;97.10
39925;DHT22;25592;49.986;11.618;2022-08-19T04:45:31;23.00;97.20
39925;DHT22;25592;49.986;11.618;2022-08-19T04:48:28;23.10;97.00
39925;DHT22;25592;49.986;11.618;2022-08-19T04:51:14;23.20;97.00
39925;DHT22;25592;49.986;11.618;2022-08-19T04:54:03;23.10;97.50
39925;DHT22;25592;49.986;11.618;2022-08-19T04:56:49;23.10;97.10
39925;DHT22;25592;49.986;11.618;2022-08-19T04:59:35;23.20;97.00
39925;DHT22;25592;49.986;11.618;2022-08-19T05:02:21;23.20;96.80
39925;DHT22;25592;49.986;11.618;2022-08-19T05:05:10;23.20;97.10
39925;DHT22;25592;49.986;11.618;2022-08-19T05:07:55;23.20;97.60
39925;DHT22;25592;49.986;11.618;2022-08-19T05:10:41;23.20;97.20
39925;DHT22;25592;49.986;11.618;2022-08-19T05:13:26;23.30;96.80
39925;DHT22;25592;49.986;11.618;2022-08-19T05:16:13;23.40;97.10
39925;DHT22;25592;49.986;11.618;2022-08-19T05:18:59;23.30;96.90
39925;DHT22;25592;49.986;11.618;2022-08-19T05:22:03;23.40;97.10
39925;DHT22;25592;49.986;11.618;2022-08-19T05:25:26;23.40;96.90
39925;DHT22;25592;49.986;11.618;2022-08-19T05:28:12;23.40;96.50
39925;DHT22;25592;49.986;11.618;2022-08-19T05:30:57;23.50;97.10
39925;DHT22;25592;49.986;11.618;2022-08-19T05:33:42;23.50;96.90
39925;DHT22;25592;49.986;11.618;2022-08-19T05:36:32;23.50;96.80
39925;DHT22;25592;49.986;11.618;2022-08-19T05:39:20;23.50;97.00
39925;DHT22;25592;49.986;11.618;2022-08-19T05:42:07;23.50;97.00
39925;DHT22;25592;49.986;11.618;2022-08-19T05:44:53;23.50;97.40
39925;DHT22;25592;49.986;11.618;2022-08-19T05:47:38;23.50;97.40
39925;DHT22;25592;49.986;11.618;2022-08-19T05:50:26;23.50;97.30
39925;DHT22;25592;49.986;11.618;2022-08-19T05:53:12;23.50;97.30
39925;DHT22;25592;49.986;11.618;2022-08-19T05:55:58;23.50;97.60
39925;DHT22;25592;49.986;11.618;2022-08-19T05:58:44;23.50;97.50
39925;DHT22;25592;49.986;11.618;2022-08-19T06:01:30;23.50;97.40
39925;DHT22;25592;49.986;11.618;2022-08-19T06:04:15;23.50;97.60
39925;DHT22;25592;49.986;11.618;2022-08-19T06:07:00;23.50;98.00
39925;DHT22;25592;49.986;11.618;2022-08-19T06:09:57;23.50;97.40
39925;DHT22;25592;49.986;11.618;2022-08-19T06:12:45;23.50;97.80
39925;DHT22;25592;49.986;11.618;2022-08-19T06:15:30;23.50;98.00
39925;DHT22;25592;49.986;11.618;2022-08-19T06:18:16;23.50;97.00
39925;DHT22;25592;49.986;11.618;2022-08-19T06:21:02;23.50;97.50
39925;DHT22;25592;49.986;11.618;2022-08-19T06:23:49;23.50;97.50
39925;DHT22;25592;49.986;11.618;2022-08-19T06:26:38;23.50;97.80
39925;DHT22;25592;49.986;11.618;2022-08-19T06:29:25;23.50;97.80
39925;DHT22;25592;49.986;11.618;2022-08-19T06:32:12;23.50;97.80
39925;DHT22;25592;49.986;11.618;2022-08-19T06:34:59;23.50;97.90
39925;DHT22;25592;49.986;11.618;2022-08-19T06:37:45;23.50;97.80
39925;DHT22;25592;49.986;11.618;2022-08-19T06:40:30;23.50;98.00
39925;DHT22;25592;49.986;11.618;2022-08-19T06:43:16;23.40;98.60
39925;DHT22;25592;49.986;11.618;2022-08-19T06:46:02;23.40;98.60
39925;DHT22;25592;49.986;11.618;2022-08-19T06:48:50;23.40;99.30
39925;DHT22;25592;49.986;11.618;2022-08-19T06:51:38;23.40;99.80
39925;DHT22;25592;49.986;11.618;2022-08-19T06:54:27;23.40;99.70
39925;DHT22;25592;49.986;11.618;2022-08-19T06:57:15;23.40;99.50
39925;DHT22;25592;49.986;11.618;2022-08-19T07:00:02;23.30;99.90
39925;DHT22;25592;49.986;11.618;2022-08-19T07:02:47;23.40;99.30
39925;DHT22;25592;49.986;11.618;2022-08-19T07:05:43;23.50;99.30
39925;DHT22;25592;49.986;11.618;2022-08-19T07:08:30;23.50;99.20
39925;DHT22;25592;49.986;11.618;2022-08-19T07:11:17;23.70;99.70
39925;DHT22;25592;49.986;11.618;2022-08-19T07:14:04;23.80;99.20
39925;DHT22;25592;49.986;11.618;2022-08-19T07:16:52;23.80;99.70
39925;DHT22;25592;49.986;11.618;2022-08-19T07:19:40;23.80;99.70
39925;DHT22;25592;49.986;11.618;2022-08-19T07:22:26;23.80;99.10
39925;DHT22;25592;49.986;11.618;2022-08-19T07:25:12;23.90;98.80
39925;DHT22;25592;49.986;11.618;2022-08-19T07:27:58;23.90;99.20
39925;DHT22;25592;49.986;11.618;2022-08-19T07:30:45;23.90;98.90
39925;DHT22;25592;49.986;11.618;2022-08-19T07:33:31;23.80;99.00
39925;DHT22;25592;49.986;11.618;2022-08-19T07:36:22;23.80;98.80
39925;DHT22;25592;49.986;11.618;2022-08-19T07:39:24;23.60;99.00
39925;DHT22;25592;49.986;11.618;2022-08-19T07:42:10;23.70;99.20
39925;DHT22;25592;49.986;11.618;2022-08-19T07:44:58;23.70;99.50
39925;DHT22;25592;49.986;11.618;2022-08-19T07:47:43;23.70;98.90
39925;DHT22;25592;49.986;11.618;2022-08-19T07:50:34;23.60;99.20
39925;DHT22;25592;49.986;11.618;2022-08-19T07:53:21;23.50;99.40
39925;DHT22;25592;49.986;11.618;2022-08-19T07:56:06;23.50;99.50
39925;DHT22;25592;49.986;11.618;2022-08-19T07:58:52;23.50;99.50
39925;DHT22;25592;49.986;11.618;2022-08-19T08:01:38;23.70;99.50
39925;DHT22;25592;49.986;11.618;2022-08-19T08:04:26;23.50;99.60
39925;DHT22;25592;49.986;11.618;2022-08-19T08:07:30;23.70;99.50
39925;DHT22;25592;49.986;11.618;2022-08-19T08:10:34;23.60;99.60
39925;DHT22;25592;49.986;11.618;2022-08-19T08:13:20;23.70;99.90
39925;DHT22;25592;49.986;11.618;2022-08-19T08:16:05;23.70;99.90
39925;DHT22;25592;49.986;11.618;2022-08-19T08:18:58;23.90;99.90
39925;DHT22;25592;49.986;11.618;2022-08-19T08:21:45;24.20;99.60
39925;DHT22;25592;49.986;11.618;2022-08-19T08:24:30;24.20;99.60
39925;DHT22;25592;49.986;11.618;2022-08-19T08:27:15;24.30;99.20
39925;DHT22;25592;49.986;11.618;2022-08-19T08:30:03;24.20;98.80
39925;DHT22;25592;49.986;11.618;2022-08-19T08:32:51;24.00;98.40
39925;DHT22;25592;49.986;11.618;2022-08-19T08:35:37;23.90;98.70
39925;DHT22;25592;49.986;11.618;2022-08-19T08:38:22;23.90;98.80
39925;DHT22;25592;49.986;11.618;2022-08-19T08:44:22;24.00;99.00
39925;DHT22;25592;49.986;11.618;2022-08-19T08:47:12;24.00;98.70
39925;DHT22;25592;49.986;11.618;2022-08-19T08:52:52;24.20;98.40
39925;DHT22;25592;49.986;11.618;2022-08-19T08:55:40;24.30;97.90
39925;DHT22;25592;49.986;11.618;2022-08-19T08:58:45;24.30;98.20
39925;DHT22;25592;49.986;11.618;2022-08-19T09:01:38;24.40;97.40
39925;DHT22;25592;49.986;11.618;2022-08-19T09:04:25;24.30;97.70
39925;DHT22;25592;49.986;11.618;2022-08-19T09:07:39;24.40;97.40
39925;DHT22;25592;49.986;11.618;2022-08-19T09:10:38;24.30;97.60
39925;DHT22;25592;49.986;11.618;2022-08-19T09:16:51;24.40;96.70
39925;DHT22;25592;49.986;11.618;2022-08-19T09:19:52;24.50;96.80
39925;DHT22;25592;49.986;11.618;2022-08-19T09:22:40;24.50;97.20
39925;DHT22;25592;49.986;11.618;2022-08-19T09:25:26;24.50;96.60
39925;DHT22;25592;49.986;11.618;2022-08-19T09:28:13;24.60;97.30
39925;DHT22;25592;49.986;11.618;2022-08-19T09:31:11;24.50;96.90
39925;DHT22;25592;49.986;11.618;2022-08-19T09:33:56;24.50;96.80
39925;DHT22;25592;49.986;11.618;2022-08-19T09:36:42;24.40;97.00
39925;DHT22;25592;49.986;11.618;2022-08-19T09:39:27;24.40;97.30
39925;DHT22;25592;49.986;11.618;2022-08-19T09:42:20;24.50;97.40
39925;DHT22;25592;49.986;11.618;2022-08-19T09:45:16;24.50;97.10
39925;DHT22;25592;49.986;11.618;2022-08-19T09:48:02;24.40;97.00
39925;DHT22;25592;49.986;11.618;2022-08-19T09:50:47;24.50;97.00
39925;DHT22;25592;49.986;11.618;2022-08-19T09:53:37;24.60;96.70
39925;DHT22;25592;49.986;11.618;2022-08-19T09:56:24;24.50;97.30
39925;DHT22;25592;49.986;11.618;2022-08-19T09:59:09;24.40;97.30
39925;DHT22;25592;49.986;11.618;2022-08-19T10:01:55;24.40;97.80
39925;DHT22;25592;49.986;11.618;2022-08-19T10:04:48;24.40;97.70
39925;DHT22;25592;49.986;11.618;2022-08-19T10:07:52;24.60;97.80
39925;DHT22;25592;49.986;11.618;2022-08-19T10:10:41;24.80;97.70
39925;DHT22;25592;49.986;11.618;2022-08-19T10:13:32;24.80;97.10
39925;DHT22;25592;49.986;11.618;2022-08-19T10:16:22;24.80;96.60
39925;DHT22;25592;49.986;11.618;2022-08-19T10:19:10;24.80;97.00
39925;DHT22;25592;49.986;11.618;2022-08-19T10:21:55;24.60;96.30
39925;DHT22;25592;49.986;11.618;2022-08-19T10:24:47;24.50;96.40
39925;DHT22;25592;49.986;11.618;2022-08-19T10:27:33;24.40;96.80
39925;DHT22;25592;49.986;11.618;2022-08-19T10:30:20;24.40;97.00
39925;DHT22;25592;49.986;11.618;2022-08-19T10:33:09;24.40;97.00
39925;DHT22;25592;49.986;11.618;2022-08-19T10:36:00;24.40;97.00
39925;DHT22;25592;49.986;11.618;2022-08-19T10:38:48;24.40;97.30
39925;DHT22;25592;49.986;11.618;2022-08-19T10:41:41;24.40;97.60
39925;DHT22;25592;49.986;11.618;2022-08-19T10:44:28;24.30;97.70
39925;DHT22;25592;49.986;11.618;2022-08-19T10:47:16;24.50;97.20
39925;DHT22;25592;49.986;11.618;2022-08-19T10:50:10;24.40;96.80
39925;DHT22;25592;49.986;11.618;2022-08-19T10:53:14;24.50;96.50
39925;DHT22;25592;49.986;11.618;2022-08-19T10:55:59;24.60;96.40
39925;DHT22;25592;49.986;11.618;2022-08-19T10:59:04;24.60;96.40
39925;DHT22;25592;49.986;11.618;2022-08-19T11:01:50;24.60;96.30
39925;DHT22;25592;49.986;11.618;2022-08-19T11:04:40;24.70;96.40
39925;DHT22;25592;49.986;11.618;2022-08-19T11:07:25;24.70;96.20
39925;DHT22;25592;49.986;11.618;2022-08-19T11:10:14;24.70;96.10
39925;DHT22;25592;49.986;11.618;2022-08-19T11:13:05;24.80;96.10
39925;DHT22;25592;49.986;11.618;2022-08-19T11:16:03;24.80;95.50
39925;DHT22;25592;49.986;11.618;2022-08-19T11:18:54;24.80;95.60
39925;DHT22;25592;49.986;11.618;2022-08-19T11:21:45;24.80;95.40
39925;DHT22;25592;49.986;11.618;2022-08-19T11:24:33;24.70;95.30
39925;DHT22;25592;49.986;11.618;2022-08-19T11:27:18;24.70;95.80
39925;DHT22;25592;49.986;11.618;2022-08-19T11:30:04;24.60;95.40
39925;DHT22;25592;49.986;11.618;2022-08-19T11:32:52;24.50;96.10
39925;DHT22;25592;49.986;11.618;2022-08-19T11:35:39;24.50;96.20
39925;DHT22;25592;49.986;11.618;2022-08-19T11:38:26;24.50;95.90
39925;DHT22;25592;49.986;11.618;2022-08-19T11:41:11;24.60;96.20
39925;DHT22;25592;49.986;11.618;2022-08-19T11:43:56;24.50;96.50
39925;DHT22;25592;49.986;11.618;2022-08-19T11:46:43;24.60;96.40
39925;DHT22;25592;49.986;11.618;2022-08-19T11:49:31;24.50;96.00
39925;DHT22;25592;49.986;11.618;2022-08-19T11:52:17;24.50;96.20
39925;DHT22;25592;49.986;11.618;2022-08-19T11:55:02;24.50;96.50
39925;DHT22;25592;49.986;11.618;2022-08-19T11:57:48;24.50;96.40
39925;DHT22;25592;49.986;11.618;2022-08-19T12:00:34;24.40;96.30
39925;DHT22;25592;49.986;11.618;2022-08-19T12:03:21;24.40;96.20
39925;DHT22;25592;49.986;11.618;2022-08-19T12:06:14;24.30;96.30
39925;DHT22;25592;49.986;11.618;2022-08-19T12:09:03;24.20;97.00
39925;DHT22;25592;49.986;11.618;2022-08-19T12:11:49;24.30;96.10
39925;DHT22;25592;49.986;11.618;2022-08-19T12:14:36;24.30;97.10
39925;DHT22;25592;49.986;11.618;2022-08-19T12:17:21;24.30;97.10
39925;DHT22;25592;49.986;11.618;2022-08-19T12:20:07;24.30;97.00
39925;DHT22;25592;49.986;11.618;2022-08-19T12:22:53;24.30;96.90
39925;DHT22;25592;49.986;11.618;2022-08-19T12:25:46;24.40;96.10
39925;DHT22;25592;49.986;11.618;2022-08-19T12:28:34;24.30;96.50
39925;DHT22;25592;49.986;11.618;2022-08-19T12:31:20;24.10;96.60
39925;DHT22;25592;49.986;11.618;2022-08-19T12:34:06;24.00;96.20
39925;DHT22;25592;49.986;11.618;2022-08-19T12:36:53;24.10;96.40
39925;DHT22;25592;49.986;11.618;2022-08-19T12:39:40;24.20;96.10
39925;DHT22;25592;49.986;11.618;2022-08-19T12:42:26;24.30;95.40
39925;DHT22;25592;49.986;11.618;2022-08-19T12:45:13;24.10;95.70
39925;DHT22;25592;49.986;11.618;2022-08-19T12:47:58;24.20;95.50
39925;DHT22;25592;49.986;11.618;2022-08-19T12:50:45;24.20;95.10
39925;DHT22;25592;49.986;11.618;2022-08-19T12:53:30;24.20;95.50
39925;DHT22;25592;49.986;11.618;2022-08-19T12:56:16;24.30;95.50
39925;DHT22;25592;49.986;11.618;2022-08-19T12:59:07;24.30;95.00
39925;DHT22;25592;49.986;11.618;2022-08-19T13:01:53;24.40;95.10
39925;DHT22;25592;49.986;11.618;2022-08-19T13:04:38;24.30;95.00
39925;DHT22;25592;49.986;11.618;2022-08-19T13:07:25;24.40;94.50
39925;DHT22;25592;49.986;11.618;2022-08-19T13:10:13;24.50;94.70
39925;DHT22;25592;49.986;11.618;2022-08-19T13:13:07;24.50;94.60
39925;DHT22;25592;49.986;11.618;2022-08-19T13:16:00;24.60;94.60
39925;DHT22;25592;49.986;11.618;2022-08-19T13:18:50;24.60;94.80
39925;DHT22;25592;49.986;11.618;2022-08-19T13:21:38;24.60;94.50
39925;DHT22;25592;49.986;11.618;2022-08-19T13:24:26;24.60;94.70
39925;DHT22;25592;49.986;11.618;2022-08-19T13:27:18;24.60;94.80
39925;DHT22;25592;49.986;11.618;2022-08-19T13:30:05;24.60;94.40
39925;DHT22;25592;49.986;11.618;2022-08-19T13:33:09;24.60;94.30
39925;DHT22;25592;49.986;11.618;2022-08-19T13:36:01;24.60;94.20
39925;DHT22;25592;49.986;11.618;2022-08-19T13:38:47;24.70;94.20
39925;DHT22;25592;49.986;11.618;2022-08-19T13:41:32;24.70;93.90
39925;DHT22;25592;49.986;11.618;2022-08-19T13:44:19;24.60;94.30
39925;DHT22;25592;49.986;11.618;2022-08-19T13:47:05;24.60;94.30
39925;DHT22;25592;49.986;11.618;2022-08-19T13:49:51;24.70;94.20
39925;DHT22;25592;49.986;11.618;2022-08-19T13:52:37;24.80;94.00
39925;DHT22;25592;49.986;11.618;2022-08-19T13:55:24;24.80;93.70
39925;DHT22;25592;49.986;11.618;2022-08-19T13:58:10;24.80;93.20
39925;DHT22;25592;49.986;11.618;2022-08-19T14:00:56;24.90;93.40
39925;DHT22;25592;49.986;11.618;2022-08-19T14:03:42;24.80;93.20
39925;DHT22;25592;49.986;11.618;2022-08-19T14:06:32;24.80;93.10
39925;DHT22;25592;49.986;11.618;2022-08-19T14:09:17;24.70;93.10
39925;DHT22;25592;49.986;11.618;2022-08-19T14:12:03;24.50;93.10
39925;DHT22;25592;49.986;11.618;2022-08-19T14:14:49;24.60;92.80
39925;DHT22;25592;49.986;11.618;2022-08-19T14:17:41;24.80;92.90
39925;DHT22;25592;49.986;11.618;2022-08-19T14:20:26;24.80;93.00
39925;DHT22;25592;49.986;11.618;2022-08-19T14:23:12;24.70;92.70
39925;DHT22;25592;49.986;11.618;2022-08-19T14:26:09;24.70;92.70
39925;DHT22;25592;49.986;11.618;2022-08-19T14:28:55;24.60;92.70
39925;DHT22;25592;49.986;11.618;2022-08-19T14:31:43;24.70;92.60
39925;DHT22;25592;49.986;11.618;2022-08-19T14:34:29;24.70;92.90
39925;DHT22;25592;49.986;11.618;2022-08-19T14:37:16;24.60;92.70
39925;DHT22;25592;49.986;11.618;2022-08-19T14:40:03;24.50;92.90
39925;DHT22;25592;49.986;11.618;2022-08-19T14:42:49;24.50;93.00
39925;DHT22;25592;49.986;11.618;2022-08-19T14:45:36;24.40;93.10
39925;DHT22;25592;49.986;11.618;2022-08-19T14:48:22;24.30;93.30
39925;DHT22;25592;49.986;11.618;2022-08-19T14:51:13;24.40;93.30
39925;DHT22;25592;49.986;11.618;2022-08-19T14:53:59;24.40;93.40
39925;DHT22;25592;49.986;11.618;2022-08-19T14:56:44;24.40;93.50
39925;DHT22;25592;49.986;11.618;2022-08-19T14:59:30;24.30;93.60
39925;DHT22;25592;49.986;11.618;2022-08-19T15:02:15;24.30;93.50
39925;DHT22;25592;49.986;11.618;2022-08-19T15:05:19;24.00;93.70
39925;DHT22;25592;49.986;11.618;2022-08-19T15:08:05;24.00;94.10
39925;DHT22;25592;49.986;11.618;2022-08-19T15:10:51;24.00;93.90
39925;DHT22;25592;49.986;11.618;2022-08-19T15:13:37;24.00;93.80
39925;DHT22;25592;49.986;11.618;2022-08-19T15:16:23;24.00;93.80
39925;DHT22;25592;49.986;11.618;2022-08-19T15:19:10;24.00;93.60
39925;DHT22;25592;49.986;11.618;2022-08-19T15:21:56;24.00;93.90
39925;DHT22;25592;49.986;11.618;2022-08-19T15:24:42;24.00;93.90
39925;DHT22;25592;49.986;11.618;2022-08-19T15:27:32;23.90;94.00
39925;DHT22;25592;49.986;11.618;2022-08-19T15:30:22;23.90;93.90
39925;DHT22;25592;49.986;11.618;2022-08-19T15:33:08;23.80;93.60
39925;DHT22;25592;49.986;11.618;2022-08-19T15:35:55;23.60;94.00
39925;DHT22;25592;49.986;11.618;2022-08-19T15:38:42;23.70;94.30
39925;DHT22;25592;49.986;11.618;2022-08-19T15:41:30;23.60;94.50
39925;DHT22;25592;49.986;11.618;2022-08-19T15:44:17;23.60;94.90
39925;DHT22;25592;49.986;11.618;2022-08-19T15:47:02;23.70;94.50
39925;DHT22;25592;49.986;11.618;2022-08-19T15:49:48;23.80;94.60
39925;DHT22;25592;49.986;11.618;2022-08-19T15:52:33;23.80;94.50
39925;DHT22;25592;49.986;11.618;2022-08-19T15:55:29;23.90;95.00
39925;DHT22;25592;49.986;11.618;2022-08-19T15:58:18;23.80;95.20
39925;DHT22;25592;49.986;11.618;2022-08-19T16:01:22;23.90;96.10
39925;DHT22;25592;49.986;11.618;2022-08-19T16:04:27;23.70;96.80
39925;DHT22;25592;49.986;11.618;2022-08-19T16:07:31;23.70;96.60
39925;DHT22;25592;49.986;11.618;2022-08-19T16:10:17;23.70;97.20
39925;DHT22;25592;49.986;11.618;2022-08-19T16:13:11;23.80;97.10
39925;DHT22;25592;49.986;11.618;2022-08-19T16:15:57;23.80;97.00
39925;DHT22;25592;49.986;11.618;2022-08-19T16:18:42;23.80;97.40
39925;DHT22;25592;49.986;11.618;2022-08-19T16:21:29;23.80;97.10
39925;DHT22;25592;49.986;11.618;2022-08-19T16:24:20;23.80;97.30
39925;DHT22;25592;49.986;11.618;2022-08-19T16:27:05;23.60;97.30
39925;DHT22;25592;49.986;11.618;2022-08-19T16:29:51;23.50;97.60
39925;DHT22;25592;49.986;11.618;2022-08-19T16:32:42;23.50;98.10
39925;DHT22;25592;49.986;11.618;2022-08-19T16:35:27;23.40;98.10
39925;DHT22;25592;49.986;11.618;2022-08-19T16:38:13;23.50;98.30
39925;DHT22;25592;49.986;11.618;2022-08-19T16:40:59;23.10;99.30
39925;DHT22;25592;49.986;11.618;2022-08-19T16:43:45;23.10;98.90
39925;DHT22;25592;49.986;11.618;2022-08-19T16:46:31;23.10;99.50
39925;DHT22;25592;49.986;11.618;2022-08-19T16:49:16;23.00;99.50
39925;DHT22;25592;49.986;11.618;2022-08-19T16:52:22;22.90;99.80
39925;DHT22;25592;49.986;11.618;2022-08-19T16:55:10;22.80;99.90
39925;DHT22;25592;49.986;11.618;2022-08-19T16:57:56;22.90;99.70
39925;DHT22;25592;49.986;11.618;2022-08-19T17:00:41;22.90;99.80
39925;DHT22;25592;49.986;11.618;2022-08-19T17:03:27;22.90;99.50
39925;DHT22;25592;49.986;11.618;2022-08-19T17:06:24;22.90;99.40
39925;DHT22;25592;49.986;11.618;2022-08-19T17:09:10;22.80;99.80
39925;DHT22;25592;49.986;11.618;2022-08-19T17:11:56;22.80;99.70
39925;DHT22;25592;49.986;11.618;2022-08-19T17:14:41;22.90;99.20
39925;DHT22;25592;49.986;11.618;2022-08-19T17:17:30;23.00;99.20
39925;DHT22;25592;49.986;11.618;2022-08-19T17:20:15;23.00;99.40
39925;DHT22;25592;49.986;11.618;2022-08-19T17:23:01;23.00;99.20
39925;DHT22;25592;49.986;11.618;2022-08-19T17:25:47;23.00;99.30
39925;DHT22;25592;49.986;11.618;2022-08-19T17:28:32;23.00;99.50
39925;DHT22;25592;49.986;11.618;2022-08-19T17:31:19;23.00;99.60
39925;DHT22;25592;49.986;11.618;2022-08-19T17:34:05;22.90;99.50